sensor_id;sensor_type;location;lat;lon;timestamp;P1;durP1;ratioP1;P2;durP2;ratioP2
3959;SDS011;1994;48.640;8.894;2022-12-24T00:01:08;2.00;;;1.10;;
3959;SDS011;1994;48.640;8.894;2022-12-24T00:03:37;0.90;;;0.90;;
3959;SDS011;1994;48.640;8.894;2022-12-24T00:06:06;2.00;;;1.30;;
3959;SDS011;1994;48.640;8.894;2022-12-24T00:08:51;2.57;;;1.10;;
3959;SDS011;1994;48.640;8.894;2022-12-24T00:11:22;4.10;;;1.07;;
3959;SDS011;1994;48.640;8.894;2022-12-24T00:17:34;6.13;;;1.53;;
3959;SDS011;1994;48.640;8.894;2022-12-24T00:20:04;3.17;;;1.13;;
3959;SDS011;1994;48.640;8.894;2022-12-24T00:22:42;3.33;;;1.27;;
3959;SDS011;1994;48.640;8.894;2022-12-24T00:28:56;2.30;;;1.00;;
3959;SDS011;1994;48.640;8.894;2022-12-24T00:31:26;1.37;;;0.97;;
3959;SDS011;1994;48.640;8.894;2022-12-24T00:37:40;3.17;;;1.20;;
3959;SDS011;1994;48.640;8.894;2022-12-24T00:40:11;2.97;;;2.37;;
3959;SDS011;1994;48.640;8.894;2022-12-24T00:42:45;1.10;;;1.00;;
3959;SDS011;1994;48.640;8.894;2022-12-24T00:48:58;7.37;;;1.63;;
3959;SDS011;1994;48.640;8.894;2022-12-24T00:55:30;2.73;;;1.03;;
3959;SDS011;1994;48.640;8.894;2022-12-24T00:57:57;4.63;;;1.77;;
3959;SDS011;1994;48.640;8.894;2022-12-24T01:00:37;4.03;;;1.20;;
3959;SDS011;1994;48.640;8.894;2022-12-24T01:03:07;1.37;;;0.83;;
3959;SDS011;1994;48.640;8.894;2022-12-24T01:09:24;2.17;;;1.50;;
3959;SDS011;1994;48.640;8.894;2022-12-24T01:11:51;6.77;;;1.50;;
3959;SDS011;1994;48.640;8.894;2022-12-24T01:18:02;2.00;;;1.13;;
3959;SDS011;1994;48.640;8.894;2022-12-24T01:20:31;5.03;;;1.30;;
3959;SDS011;1994;48.640;8.894;2022-12-24T01:23:07;3.13;;;1.23;;
3959;SDS011;1994;48.640;8.894;2022-12-24T01:25:39;4.40;;;1.33;;
3959;SDS011;1994;48.640;8.894;2022-12-24T01:28:09;2.57;;;1.50;;
3959;SDS011;1994;48.640;8.894;2022-12-24T01:30:42;2.43;;;1.30;;
3959;SDS011;1994;48.640;8.894;2022-12-24T01:33:12;3.47;;;1.10;;
3959;SDS011;1994;48.640;8.894;2022-12-24T01:39:23;8.60;;;1.30;;
3959;SDS011;1994;48.640;8.894;2022-12-24T01:41:54;3.27;;;2.00;;
3959;SDS011;1994;48.640;8.894;2022-12-24T01:48:38;2.80;;;2.30;;
3959;SDS011;1994;48.640;8.894;2022-12-24T01:55:09;2.77;;;1.33;;
3959;SDS011;1994;48.640;8.894;2022-12-24T01:57:43;2.50;;;1.30;;
3959;SDS011;1994;48.640;8.894;2022-12-24T02:00:19;3.07;;;1.23;;
3959;SDS011;1994;48.640;8.894;2022-12-24T02:02:47;2.00;;;1.20;;
3959;SDS011;1994;48.640;8.894;2022-12-24T02:05:42;8.53;;;2.67;;
3959;SDS011;1994;48.640;8.894;2022-12-24T02:08:18;2.93;;;1.30;;
3959;SDS011;1994;48.640;8.894;2022-12-24T02:10:54;3.60;;;1.40;;
3959;SDS011;1994;48.640;8.894;2022-12-24T02:13:24;3.27;;;1.00;;
3959;SDS011;1994;48.640;8.894;2022-12-24T02:22:40;1.53;;;1.43;;
3959;SDS011;1994;48.640;8.894;2022-12-24T02:32:17;1.17;;;1.07;;
3959;SDS011;1994;48.640;8.894;2022-12-24T02:38:40;3.43;;;1.53;;
3959;SDS011;1994;48.640;8.894;2022-12-24T02:41:29;9.80;;;1.60;;
3959;SDS011;1994;48.640;8.894;2022-12-24T02:47:42;5.07;;;1.97;;
3959;SDS011;1994;48.640;8.894;2022-12-24T02:50:21;1.37;;;1.23;;
3959;SDS011;1994;48.640;8.894;2022-12-24T02:52:51;3.90;;;2.20;;
3959;SDS011;1994;48.640;8.894;2022-12-24T03:12:05;4.10;;;1.83;;
3959;SDS011;1994;48.640;8.894;2022-12-24T03:18:39;1.20;;;1.10;;
3959;SDS011;1994;48.640;8.894;2022-12-24T03:21:15;6.70;;;1.17;;
3959;SDS011;1994;48.640;8.894;2022-12-24T03:27:33;9.20;;;1.50;;
3959;SDS011;1994;48.640;8.894;2022-12-24T03:30:12;3.43;;;2.43;;
3959;SDS011;1994;48.640;8.894;2022-12-24T03:32:44;2.60;;;1.53;;
3959;SDS011;1994;48.640;8.894;2022-12-24T03:38:41;1.53;;;1.07;;
3959;SDS011;1994;48.640;8.894;2022-12-24T03:41:19;11.63;;;1.87;;
3959;SDS011;1994;48.640;8.894;2022-12-24T03:43:49;4.90;;;1.93;;
3959;SDS011;1994;48.640;8.894;2022-12-24T03:46:19;3.80;;;3.20;;
3959;SDS011;1994;48.640;8.894;2022-12-24T03:48:48;3.40;;;1.60;;
3959;SDS011;1994;48.640;8.894;2022-12-24T03:51:19;5.93;;;2.60;;
3959;SDS011;1994;48.640;8.894;2022-12-24T03:57:17;2.17;;;1.40;;
3959;SDS011;1994;48.640;8.894;2022-12-24T03:59:44;4.83;;;1.40;;
3959;SDS011;1994;48.640;8.894;2022-12-24T04:02:17;3.33;;;1.63;;
3959;SDS011;1994;48.640;8.894;2022-12-24T04:08:27;5.57;;;1.70;;
3959;SDS011;1994;48.640;8.894;2022-12-24T04:10:54;1.80;;;1.40;;
3959;SDS011;1994;48.640;8.894;2022-12-24T04:13:21;2.33;;;1.20;;
3959;SDS011;1994;48.640;8.894;2022-12-24T04:18:26;1.33;;;1.20;;
3959;SDS011;1994;48.640;8.894;2022-12-24T04:20:54;2.10;;;1.33;;
3959;SDS011;1994;48.640;8.894;2022-12-24T04:23:21;1.63;;;0.93;;
3959;SDS011;1994;48.640;8.894;2022-12-24T04:29:30;3.40;;;1.77;;
3959;SDS011;1994;48.640;8.894;2022-12-24T04:31:57;2.13;;;1.10;;
3959;SDS011;1994;48.640;8.894;2022-12-24T04:38:06;8.90;;;1.87;;
3959;SDS011;1994;48.640;8.894;2022-12-24T04:47:37;2.30;;;1.53;;
3959;SDS011;1994;48.640;8.894;2022-12-24T04:50:03;1.83;;;1.00;;
3959;SDS011;1994;48.640;8.894;2022-12-24T04:52:32;3.13;;;1.47;;
3959;SDS011;1994;48.640;8.894;2022-12-24T04:58:41;9.33;;;2.00;;
3959;SDS011;1994;48.640;8.894;2022-12-24T05:01:11;2.00;;;1.50;;
3959;SDS011;1994;48.640;8.894;2022-12-24T05:07:20;1.27;;;1.17;;
3959;SDS011;1994;48.640;8.894;2022-12-24T05:09:47;3.03;;;1.10;;
3959;SDS011;1994;48.640;8.894;2022-12-24T05:12:15;2.87;;;2.03;;
3959;SDS011;1994;48.640;8.894;2022-12-24T05:18:23;2.00;;;1.10;;
3959;SDS011;1994;48.640;8.894;2022-12-24T05:20:50;1.50;;;1.10;;
3959;SDS011;1994;48.640;8.894;2022-12-24T05:23:20;1.23;;;1.13;;
3959;SDS011;1994;48.640;8.894;2022-12-24T05:26:24;4.57;;;1.70;;
3959;SDS011;1994;48.640;8.894;2022-12-24T05:29:08;2.20;;;1.33;;
3959;SDS011;1994;48.640;8.894;2022-12-24T05:31:37;2.23;;;1.43;;
3959;SDS011;1994;48.640;8.894;2022-12-24T05:37:27;4.97;;;2.07;;
3959;SDS011;1994;48.640;8.894;2022-12-24T05:39:54;11.03;;;1.77;;
3959;SDS011;1994;48.640;8.894;2022-12-24T05:42:21;1.83;;;1.73;;
3959;SDS011;1994;48.640;8.894;2022-12-24T05:47:34;4.10;;;1.00;;
3959;SDS011;1994;48.640;8.894;2022-12-24T05:50:01;3.63;;;1.67;;
3959;SDS011;1994;48.640;8.894;2022-12-24T05:52:29;2.30;;;1.70;;
3959;SDS011;1994;48.640;8.894;2022-12-24T05:54:56;1.73;;;1.50;;
3959;SDS011;1994;48.640;8.894;2022-12-24T05:57:23;10.50;;;1.27;;
3959;SDS011;1994;48.640;8.894;2022-12-24T05:59:50;3.87;;;1.50;;
3959;SDS011;1994;48.640;8.894;2022-12-24T06:02:17;5.97;;;1.63;;
3959;SDS011;1994;48.640;8.894;2022-12-24T06:04:44;3.43;;;1.23;;
3959;SDS011;1994;48.640;8.894;2022-12-24T06:07:12;6.60;;;1.67;;
3959;SDS011;1994;48.640;8.894;2022-12-24T06:09:38;3.70;;;2.00;;
3959;SDS011;1994;48.640;8.894;2022-12-24T06:12:05;5.03;;;1.80;;
3959;SDS011;1994;48.640;8.894;2022-12-24T06:14:32;2.47;;;1.53;;
3959;SDS011;1994;48.640;8.894;2022-12-24T06:16:59;3.10;;;1.80;;
3959;SDS011;1994;48.640;8.894;2022-12-24T06:19:26;5.40;;;2.63;;
3959;SDS011;1994;48.640;8.894;2022-12-24T06:21:53;2.87;;;1.80;;
3959;SDS011;1994;48.640;8.894;2022-12-24T06:24:21;4.27;;;1.77;;
3959;SDS011;1994;48.640;8.894;2022-12-24T06:26:48;3.60;;;1.53;;
3959;SDS011;1994;48.640;8.894;2022-12-24T06:29:15;4.93;;;2.20;;
3959;SDS011;1994;48.640;8.894;2022-12-24T06:31:42;1.57;;;1.47;;
3959;SDS011;1994;48.640;8.894;2022-12-24T06:34:09;2.77;;;1.70;;
3959;SDS011;1994;48.640;8.894;2022-12-24T06:36:37;4.60;;;1.70;;
3959;SDS011;1994;48.640;8.894;2022-12-24T06:39:05;7.30;;;4.47;;
3959;SDS011;1994;48.640;8.894;2022-12-24T06:41:32;2.70;;;2.50;;
3959;SDS011;1994;48.640;8.894;2022-12-24T06:44:00;5.70;;;3.43;;
3959;SDS011;1994;48.640;8.894;2022-12-24T06:46:26;6.47;;;2.90;;
3959;SDS011;1994;48.640;8.894;2022-12-24T06:48:53;4.50;;;4.13;;
3959;SDS011;1994;48.640;8.894;2022-12-24T06:51:21;5.47;;;2.47;;
3959;SDS011;1994;48.640;8.894;2022-12-24T06:53:49;2.93;;;2.13;;
3959;SDS011;1994;48.640;8.894;2022-12-24T06:56:17;8.37;;;3.40;;
3959;SDS011;1994;48.640;8.894;2022-12-24T06:58:45;4.00;;;3.43;;
3959;SDS011;1994;48.640;8.894;2022-12-24T07:01:13;5.20;;;2.97;;
3959;SDS011;1994;48.640;8.894;2022-12-24T07:07:24;6.73;;;4.30;;
3959;SDS011;1994;48.640;8.894;2022-12-24T07:09:51;8.70;;;4.70;;
3959;SDS011;1994;48.640;8.894;2022-12-24T07:12:20;3.60;;;3.30;;
3959;SDS011;1994;48.640;8.894;2022-12-24T07:18:30;6.10;;;3.47;;
3959;SDS011;1994;48.640;8.894;2022-12-24T07:24:38;4.20;;;2.07;;
3959;SDS011;1994;48.640;8.894;2022-12-24T07:27:08;4.00;;;2.00;;
3959;SDS011;1994;48.640;8.894;2022-12-24T07:29:36;3.07;;;2.00;;
3959;SDS011;1994;48.640;8.894;2022-12-24T07:32:04;2.50;;;2.30;;
3959;SDS011;1994;48.640;8.894;2022-12-24T07:38:15;5.00;;;2.80;;
3959;SDS011;1994;48.640;8.894;2022-12-24T07:40:41;4.60;;;3.20;;
3959;SDS011;1994;48.640;8.894;2022-12-24T07:43:09;3.37;;;2.10;;
3959;SDS011;1994;48.640;8.894;2022-12-24T07:49:17;5.10;;;1.80;;
3959;SDS011;1994;48.640;8.894;2022-12-24T07:51:44;4.73;;;2.00;;
3959;SDS011;1994;48.640;8.894;2022-12-24T07:57:53;5.03;;;2.27;;
3959;SDS011;1994;48.640;8.894;2022-12-24T08:00:20;12.20;;;3.10;;
3959;SDS011;1994;48.640;8.894;2022-12-24T08:02:47;4.53;;;2.00;;
3959;SDS011;1994;48.640;8.894;2022-12-24T08:08:55;3.90;;;2.00;;
3959;SDS011;1994;48.640;8.894;2022-12-24T08:11:22;9.43;;;2.77;;
3959;SDS011;1994;48.640;8.894;2022-12-24T08:17:12;2.70;;;2.50;;
3959;SDS011;1994;48.640;8.894;2022-12-24T08:19:40;7.40;;;3.33;;
3959;SDS011;1994;48.640;8.894;2022-12-24T08:22:08;6.60;;;3.27;;
3959;SDS011;1994;48.640;8.894;2022-12-24T08:28:16;13.80;;;5.70;;
3959;SDS011;1994;48.640;8.894;2022-12-24T08:30:46;9.10;;;3.43;;
3959;SDS011;1994;48.640;8.894;2022-12-24T08:33:15;7.43;;;4.20;;
3959;SDS011;1994;48.640;8.894;2022-12-24T08:39:05;7.87;;;2.77;;
3959;SDS011;1994;48.640;8.894;2022-12-24T08:41:33;2.13;;;1.63;;
3959;SDS011;1994;48.640;8.894;2022-12-24T08:47:41;7.27;;;2.10;;
3959;SDS011;1994;48.640;8.894;2022-12-24T08:50:08;8.67;;;2.37;;
3959;SDS011;1994;48.640;8.894;2022-12-24T08:52:37;4.80;;;1.50;;
3959;SDS011;1994;48.640;8.894;2022-12-24T08:58:26;7.50;;;3.30;;
3959;SDS011;1994;48.640;8.894;2022-12-24T09:00:59;12.10;;;5.20;;
3959;SDS011;1994;48.640;8.894;2022-12-24T09:07:08;12.77;;;3.07;;
3959;SDS011;1994;48.640;8.894;2022-12-24T09:09:38;9.87;;;3.90;;
3959;SDS011;1994;48.640;8.894;2022-12-24T09:12:05;8.63;;;3.07;;
3959;SDS011;1994;48.640;8.894;2022-12-24T09:14:34;6.33;;;3.10;;
3959;SDS011;1994;48.640;8.894;2022-12-24T09:17:04;3.20;;;2.90;;
3959;SDS011;1994;48.640;8.894;2022-12-24T09:19:36;4.40;;;3.40;;
3959;SDS011;1994;48.640;8.894;2022-12-24T09:22:03;7.47;;;3.07;;
3959;SDS011;1994;48.640;8.894;2022-12-24T09:28:15;3.93;;;2.63;;
3959;SDS011;1994;48.640;8.894;2022-12-24T09:30:53;14.33;;;7.40;;
3959;SDS011;1994;48.640;8.894;2022-12-24T09:33:29;5.43;;;3.53;;
3959;SDS011;1994;48.640;8.894;2022-12-24T09:36:04;8.07;;;5.00;;
3959;SDS011;1994;48.640;8.894;2022-12-24T09:38:32;9.67;;;3.93;;
3959;SDS011;1994;48.640;8.894;2022-12-24T09:41:13;5.13;;;2.50;;
3959;SDS011;1994;48.640;8.894;2022-12-24T09:53:14;3.00;;;2.07;;
3959;SDS011;1994;48.640;8.894;2022-12-24T09:56:13;1.87;;;1.73;;
3959;SDS011;1994;48.640;8.894;2022-12-24T09:58:50;6.07;;;2.30;;
3959;SDS011;1994;48.640;8.894;2022-12-24T10:01:30;7.43;;;2.10;;
3959;SDS011;1994;48.640;8.894;2022-12-24T10:04:07;3.90;;;1.80;;
3959;SDS011;1994;48.640;8.894;2022-12-24T10:12:28;9.73;;;3.20;;
3959;SDS011;1994;48.640;8.894;2022-12-24T10:32:00;4.10;;;1.77;;
3959;SDS011;1994;48.640;8.894;2022-12-24T10:38:15;3.33;;;2.17;;
3959;SDS011;1994;48.640;8.894;2022-12-24T10:40:43;4.80;;;2.33;;
3959;SDS011;1994;48.640;8.894;2022-12-24T10:49:51;3.03;;;1.63;;
3959;SDS011;1994;48.640;8.894;2022-12-24T10:52:28;4.17;;;3.10;;
3959;SDS011;1994;48.640;8.894;2022-12-24T10:58:53;3.30;;;1.80;;
3959;SDS011;1994;48.640;8.894;2022-12-24T11:11:42;4.10;;;2.50;;
3959;SDS011;1994;48.640;8.894;2022-12-24T11:17:20;5.97;;;2.57;;
3959;SDS011;1994;48.640;8.894;2022-12-24T11:19:49;9.97;;;2.60;;
3959;SDS011;1994;48.640;8.894;2022-12-24T11:28:35;2.00;;;1.77;;
3959;SDS011;1994;48.640;8.894;2022-12-24T11:31:26;4.87;;;2.07;;
3959;SDS011;1994;48.640;8.894;2022-12-24T11:37:41;3.33;;;2.33;;
3959;SDS011;1994;48.640;8.894;2022-12-24T11:40:22;3.80;;;2.10;;
3959;SDS011;1994;48.640;8.894;2022-12-24T11:42:58;2.37;;;1.97;;
3959;SDS011;1994;48.640;8.894;2022-12-24T11:58:14;6.13;;;2.43;;
3959;SDS011;1994;48.640;8.894;2022-12-24T12:00:51;6.33;;;2.47;;
3959;SDS011;1994;48.640;8.894;2022-12-24T12:07:13;3.10;;;2.20;;
3959;SDS011;1994;48.640;8.894;2022-12-24T12:12:44;4.73;;;2.20;;
3959;SDS011;1994;48.640;8.894;2022-12-24T12:19:05;5.23;;;1.80;;
3959;SDS011;1994;48.640;8.894;2022-12-24T12:21:37;6.40;;;2.10;;
3959;SDS011;1994;48.640;8.894;2022-12-24T12:28:01;13.67;;;2.77;;
3959;SDS011;1994;48.640;8.894;2022-12-24T12:36:52;3.50;;;2.10;;
3959;SDS011;1994;48.640;8.894;2022-12-24T12:39:54;3.30;;;1.40;;
3959;SDS011;1994;48.640;8.894;2022-12-24T12:42:35;4.33;;;1.67;;
3959;SDS011;1994;48.640;8.894;2022-12-24T12:48:52;2.60;;;1.70;;
3959;SDS011;1994;48.640;8.894;2022-12-24T12:58:26;4.10;;;1.50;;
3959;SDS011;1994;48.640;8.894;2022-12-24T13:20:45;4.20;;;1.43;;
3959;SDS011;1994;48.640;8.894;2022-12-24T13:23:20;3.17;;;1.50;;
3959;SDS011;1994;48.640;8.894;2022-12-24T13:25:54;9.00;;;1.73;;
3959;SDS011;1994;48.640;8.894;2022-12-24T13:28:40;6.00;;;2.60;;
3959;SDS011;1994;48.640;8.894;2022-12-24T13:34:00;4.20;;;1.77;;
3959;SDS011;1994;48.640;8.894;2022-12-24T13:58:46;3.60;;;2.60;;
3959;SDS011;1994;48.640;8.894;2022-12-24T14:01:37;4.00;;;1.90;;
3959;SDS011;1994;48.640;8.894;2022-12-24T14:07:36;2.80;;;2.10;;
3959;SDS011;1994;48.640;8.894;2022-12-24T14:10:22;3.80;;;1.67;;
3959;SDS011;1994;48.640;8.894;2022-12-24T14:13:03;5.07;;;1.93;;
3959;SDS011;1994;48.640;8.894;2022-12-24T14:16:03;8.20;;;2.30;;
3959;SDS011;1994;48.640;8.894;2022-12-24T14:28:40;8.47;;;1.90;;
3959;SDS011;1994;48.640;8.894;2022-12-24T14:31:29;9.17;;;3.03;;
3959;SDS011;1994;48.640;8.894;2022-12-24T14:34:07;5.60;;;2.27;;
3959;SDS011;1994;48.640;8.894;2022-12-24T14:36:38;5.90;;;2.50;;
3959;SDS011;1994;48.640;8.894;2022-12-24T14:39:28;3.87;;;2.00;;
3959;SDS011;1994;48.640;8.894;2022-12-24T14:49:12;4.73;;;2.00;;
3959;SDS011;1994;48.640;8.894;2022-12-24T14:55:48;1.73;;;1.63;;
3959;SDS011;1994;48.640;8.894;2022-12-24T14:58:22;4.40;;;2.37;;
3959;SDS011;1994;48.640;8.894;2022-12-24T15:01:00;2.30;;;2.10;;
3959;SDS011;1994;48.640;8.894;2022-12-24T15:07:21;5.07;;;2.43;;
3959;SDS011;1994;48.640;8.894;2022-12-24T15:09:48;5.23;;;2.70;;
3959;SDS011;1994;48.640;8.894;2022-12-24T15:12:20;4.00;;;2.40;;
3959;SDS011;1994;48.640;8.894;2022-12-24T15:18:37;4.07;;;3.03;;
3959;SDS011;1994;48.640;8.894;2022-12-24T15:21:19;4.97;;;2.70;;
3959;SDS011;1994;48.640;8.894;2022-12-24T15:27:18;5.30;;;3.27;;
3959;SDS011;1994;48.640;8.894;2022-12-24T15:29:57;5.57;;;2.17;;
3959;SDS011;1994;48.640;8.894;2022-12-24T15:32:38;4.37;;;2.27;;
3959;SDS011;1994;48.640;8.894;2022-12-24T15:38:49;6.33;;;4.60;;
3959;SDS011;1994;48.640;8.894;2022-12-24T15:41:34;6.20;;;3.63;;
3959;SDS011;1994;48.640;8.894;2022-12-24T15:48:07;7.63;;;4.10;;
3959;SDS011;1994;48.640;8.894;2022-12-24T15:50:44;9.43;;;7.00;;
3959;SDS011;1994;48.640;8.894;2022-12-24T15:53:27;4.03;;;3.63;;
3959;SDS011;1994;48.640;8.894;2022-12-24T15:59:37;3.47;;;2.17;;
3959;SDS011;1994;48.640;8.894;2022-12-24T16:08:58;5.10;;;2.07;;
3959;SDS011;1994;48.640;8.894;2022-12-24T16:15:44;3.73;;;2.17;;
3959;SDS011;1994;48.640;8.894;2022-12-24T16:18:39;5.93;;;2.13;;
3959;SDS011;1994;48.640;8.894;2022-12-24T16:27:27;5.47;;;2.80;;
3959;SDS011;1994;48.640;8.894;2022-12-24T16:29:54;7.00;;;3.93;;
3959;SDS011;1994;48.640;8.894;2022-12-24T16:32:35;6.10;;;2.30;;
3959;SDS011;1994;48.640;8.894;2022-12-24T16:35:27;2.40;;;2.03;;
3959;SDS011;1994;48.640;8.894;2022-12-24T16:38:06;4.63;;;2.70;;
3959;SDS011;1994;48.640;8.894;2022-12-24T16:40:37;2.87;;;2.40;;
3959;SDS011;1994;48.640;8.894;2022-12-24T16:43:07;4.93;;;3.17;;
3959;SDS011;1994;48.640;8.894;2022-12-24T16:49:37;8.63;;;3.83;;
3959;SDS011;1994;48.640;8.894;2022-12-24T16:52:13;4.90;;;3.60;;
3959;SDS011;1994;48.640;8.894;2022-12-24T16:58:38;5.23;;;3.30;;
3959;SDS011;1994;48.640;8.894;2022-12-24T17:01:06;5.90;;;3.97;;
3959;SDS011;1994;48.640;8.894;2022-12-24T17:03:40;7.70;;;4.53;;
3959;SDS011;1994;48.640;8.894;2022-12-24T17:06:10;7.70;;;4.60;;
3959;SDS011;1994;48.640;8.894;2022-12-24T17:08:48;3.53;;;2.80;;
3959;SDS011;1994;48.640;8.894;2022-12-24T17:11:15;3.00;;;2.70;;
3959;SDS011;1994;48.640;8.894;2022-12-24T17:13:46;11.40;;;3.23;;
3959;SDS011;1994;48.640;8.894;2022-12-24T17:16:13;8.00;;;3.70;;
3959;SDS011;1994;48.640;8.894;2022-12-24T17:18:40;3.90;;;3.10;;
3959;SDS011;1994;48.640;8.894;2022-12-24T17:21:08;4.87;;;3.80;;
3959;SDS011;1994;48.640;8.894;2022-12-24T17:23:39;5.13;;;3.50;;
3959;SDS011;1994;48.640;8.894;2022-12-24T17:26:07;4.10;;;3.27;;
3959;SDS011;1994;48.640;8.894;2022-12-24T17:28:38;3.93;;;3.57;;
3959;SDS011;1994;48.640;8.894;2022-12-24T17:31:16;8.30;;;4.60;;
3959;SDS011;1994;48.640;8.894;2022-12-24T17:33:44;5.17;;;3.20;;
3959;SDS011;1994;48.640;8.894;2022-12-24T17:36:10;6.00;;;4.03;;
3959;SDS011;1994;48.640;8.894;2022-12-24T17:38:38;4.67;;;4.23;;
3959;SDS011;1994;48.640;8.894;2022-12-24T17:41:09;7.30;;;4.37;;
3959;SDS011;1994;48.640;8.894;2022-12-24T17:43:39;8.10;;;4.47;;
3959;SDS011;1994;48.640;8.894;2022-12-24T17:46:09;4.30;;;3.20;;
3959;SDS011;1994;48.640;8.894;2022-12-24T17:48:41;4.90;;;3.73;;
3959;SDS011;1994;48.640;8.894;2022-12-24T17:51:12;14.13;;;7.37;;
3959;SDS011;1994;48.640;8.894;2022-12-24T17:53:43;27.33;;;9.30;;
3959;SDS011;1994;48.640;8.894;2022-12-24T17:56:10;36.87;;;14.33;;
3959;SDS011;1994;48.640;8.894;2022-12-24T17:58:40;23.97;;;10.03;;
3959;SDS011;1994;48.640;8.894;2022-12-24T18:01:11;8.90;;;5.83;;
3959;SDS011;1994;48.640;8.894;2022-12-24T18:03:44;8.33;;;4.67;;
3959;SDS011;1994;48.640;8.894;2022-12-24T18:06:13;8.33;;;4.67;;
3959;SDS011;1994;48.640;8.894;2022-12-24T18:08:42;5.47;;;4.07;;
3959;SDS011;1994;48.640;8.894;2022-12-24T18:11:16;7.00;;;4.10;;
3959;SDS011;1994;48.640;8.894;2022-12-24T18:13:51;4.90;;;3.80;;
3959;SDS011;1994;48.640;8.894;2022-12-24T18:16:25;4.40;;;3.43;;
3959;SDS011;1994;48.640;8.894;2022-12-24T18:18:58;3.73;;;3.40;;
3959;SDS011;1994;48.640;8.894;2022-12-24T18:21:29;3.30;;;3.00;;
3959;SDS011;1994;48.640;8.894;2022-12-24T18:27:38;3.37;;;3.07;;
3959;SDS011;1994;48.640;8.894;2022-12-24T18:30:06;3.17;;;2.90;;
3959;SDS011;1994;48.640;8.894;2022-12-24T18:32:34;3.07;;;2.80;;
3959;SDS011;1994;48.640;8.894;2022-12-24T18:35:03;4.47;;;2.60;;
3959;SDS011;1994;48.640;8.894;2022-12-24T18:37:31;3.33;;;3.03;;
3959;SDS011;1994;48.640;8.894;2022-12-24T18:40:00;5.80;;;3.40;;
3959;SDS011;1994;48.640;8.894;2022-12-24T18:42:28;3.73;;;2.40;;
3959;SDS011;1994;48.640;8.894;2022-12-24T18:48:36;3.60;;;3.10;;
3959;SDS011;1994;48.640;8.894;2022-12-24T18:51:03;5.00;;;3.67;;
3959;SDS011;1994;48.640;8.894;2022-12-24T18:53:33;3.10;;;2.53;;
3959;SDS011;1994;48.640;8.894;2022-12-24T18:59:24;3.50;;;2.87;;
3959;SDS011;1994;48.640;8.894;2022-12-24T19:01:51;3.17;;;2.97;;
3959;SDS011;1994;48.640;8.894;2022-12-24T19:04:19;2.33;;;2.13;;
3959;SDS011;1994;48.640;8.894;2022-12-24T19:06:46;3.00;;;2.80;;
3959;SDS011;1994;48.640;8.894;2022-12-24T19:09:13;2.87;;;2.67;;
3959;SDS011;1994;48.640;8.894;2022-12-24T19:11:41;3.80;;;3.40;;
3959;SDS011;1994;48.640;8.894;2022-12-24T19:14:09;8.17;;;3.27;;
3959;SDS011;1994;48.640;8.894;2022-12-24T19:16:38;3.77;;;3.17;;
3959;SDS011;1994;48.640;8.894;2022-12-24T19:19:07;4.10;;;3.00;;
3959;SDS011;1994;48.640;8.894;2022-12-24T19:21:36;6.00;;;5.50;;
3959;SDS011;1994;48.640;8.894;2022-12-24T19:24:03;6.23;;;4.40;;
3959;SDS011;1994;48.640;8.894;2022-12-24T19:26:34;4.00;;;3.40;;
3959;SDS011;1994;48.640;8.894;2022-12-24T19:29:02;4.03;;;3.57;;
3959;SDS011;1994;48.640;8.894;2022-12-24T19:31:29;4.10;;;2.70;;
3959;SDS011;1994;48.640;8.894;2022-12-24T19:33:56;3.60;;;3.30;;
3959;SDS011;1994;48.640;8.894;2022-12-24T19:36:25;3.70;;;3.13;;
3959;SDS011;1994;48.640;8.894;2022-12-24T19:38:54;4.63;;;3.50;;
3959;SDS011;1994;48.640;8.894;2022-12-24T19:41:27;8.90;;;3.80;;
3959;SDS011;1994;48.640;8.894;2022-12-24T19:47:17;3.63;;;3.33;;
3959;SDS011;1994;48.640;8.894;2022-12-24T19:49:44;6.17;;;3.30;;
3959;SDS011;1994;48.640;8.894;2022-12-24T19:52:12;5.70;;;3.83;;
3959;SDS011;1994;48.640;8.894;2022-12-24T19:54:38;3.03;;;2.83;;
3959;SDS011;1994;48.640;8.894;2022-12-24T19:57:07;7.97;;;5.50;;
3959;SDS011;1994;48.640;8.894;2022-12-24T19:59:34;3.67;;;3.47;;
3959;SDS011;1994;48.640;8.894;2022-12-24T20:02:02;3.70;;;3.20;;
3959;SDS011;1994;48.640;8.894;2022-12-24T20:04:30;5.10;;;3.67;;
3959;SDS011;1994;48.640;8.894;2022-12-24T20:06:57;4.50;;;3.50;;
3959;SDS011;1994;48.640;8.894;2022-12-24T20:09:24;4.37;;;3.13;;
3959;SDS011;1994;48.640;8.894;2022-12-24T20:11:53;11.27;;;4.17;;
3959;SDS011;1994;48.640;8.894;2022-12-24T20:14:20;5.23;;;3.50;;
3959;SDS011;1994;48.640;8.894;2022-12-24T20:16:47;4.63;;;3.87;;
3959;SDS011;1994;48.640;8.894;2022-12-24T20:19:14;3.33;;;3.03;;
3959;SDS011;1994;48.640;8.894;2022-12-24T20:21:41;5.30;;;4.40;;
3959;SDS011;1994;48.640;8.894;2022-12-24T20:24:09;5.43;;;3.30;;
3959;SDS011;1994;48.640;8.894;2022-12-24T20:26:36;3.40;;;3.10;;
3959;SDS011;1994;48.640;8.894;2022-12-24T20:29:04;3.47;;;3.20;;
3959;SDS011;1994;48.640;8.894;2022-12-24T20:31:33;5.00;;;3.87;;
3959;SDS011;1994;48.640;8.894;2022-12-24T20:34:01;4.83;;;4.10;;
3959;SDS011;1994;48.640;8.894;2022-12-24T20:36:31;4.60;;;4.10;;
3959;SDS011;1994;48.640;8.894;2022-12-24T20:39:00;4.17;;;3.33;;
3959;SDS011;1994;48.640;8.894;2022-12-24T20:41:29;6.10;;;4.13;;
3959;SDS011;1994;48.640;8.894;2022-12-24T20:47:19;4.50;;;4.10;;
3959;SDS011;1994;48.640;8.894;2022-12-24T20:49:48;4.37;;;3.97;;
3959;SDS011;1994;48.640;8.894;2022-12-24T20:52:16;4.67;;;4.27;;
3959;SDS011;1994;48.640;8.894;2022-12-24T20:58:24;4.33;;;3.93;;
3959;SDS011;1994;48.640;8.894;2022-12-24T21:00:51;7.20;;;4.50;;
3959;SDS011;1994;48.640;8.894;2022-12-24T21:03:18;4.23;;;3.83;;
3959;SDS011;1994;48.640;8.894;2022-12-24T21:09:27;8.30;;;5.10;;
3959;SDS011;1994;48.640;8.894;2022-12-24T21:11:54;5.43;;;4.30;;
3959;SDS011;1994;48.640;8.894;2022-12-24T21:18:04;4.70;;;4.13;;
3959;SDS011;1994;48.640;8.894;2022-12-24T21:20:36;6.03;;;3.23;;
3959;SDS011;1994;48.640;8.894;2022-12-24T21:23:05;7.10;;;3.90;;
3959;SDS011;1994;48.640;8.894;2022-12-24T21:28:56;3.80;;;3.40;;
3959;SDS011;1994;48.640;8.894;2022-12-24T21:31:24;4.20;;;3.10;;
3959;SDS011;1994;48.640;8.894;2022-12-24T21:33:52;3.90;;;3.60;;
3959;SDS011;1994;48.640;8.894;2022-12-24T21:36:21;5.90;;;3.30;;
3959;SDS011;1994;48.640;8.894;2022-12-24T21:38:49;2.83;;;2.63;;
3959;SDS011;1994;48.640;8.894;2022-12-24T21:41:19;4.10;;;2.90;;
3959;SDS011;1994;48.640;8.894;2022-12-24T21:43:58;5.27;;;2.83;;
3959;SDS011;1994;48.640;8.894;2022-12-24T21:46:26;3.73;;;3.43;;
3959;SDS011;1994;48.640;8.894;2022-12-24T21:48:56;2.83;;;2.63;;
3959;SDS011;1994;48.640;8.894;2022-12-24T21:51:42;3.03;;;2.83;;
3959;SDS011;1994;48.640;8.894;2022-12-24T21:54:13;3.20;;;3.00;;
3959;SDS011;1994;48.640;8.894;2022-12-24T21:56:59;3.93;;;3.30;;
3959;SDS011;1994;48.640;8.894;2022-12-24T21:59:48;8.03;;;3.37;;
3959;SDS011;1994;48.640;8.894;2022-12-24T22:02:17;3.40;;;3.20;;
3959;SDS011;1994;48.640;8.894;2022-12-24T22:08:33;4.00;;;3.50;;
3959;SDS011;1994;48.640;8.894;2022-12-24T22:15:00;3.30;;;3.00;;
3959;SDS011;1994;48.640;8.894;2022-12-24T22:17:31;3.07;;;2.87;;
3959;SDS011;1994;48.640;8.894;2022-12-24T22:19:58;4.43;;;3.63;;
3959;SDS011;1994;48.640;8.894;2022-12-24T22:22:26;4.70;;;3.23;;
3959;SDS011;1994;48.640;8.894;2022-12-24T22:24:57;3.43;;;3.20;;
3959;SDS011;1994;48.640;8.894;2022-12-24T22:27:23;4.60;;;3.27;;
3959;SDS011;1994;48.640;8.894;2022-12-24T22:29:50;4.63;;;3.30;;
3959;SDS011;1994;48.640;8.894;2022-12-24T22:32:20;3.27;;;3.00;;
3959;SDS011;1994;48.640;8.894;2022-12-24T22:34:48;2.87;;;2.67;;
3959;SDS011;1994;48.640;8.894;2022-12-24T22:37:15;2.50;;;2.30;;
3959;SDS011;1994;48.640;8.894;2022-12-24T22:39:43;3.83;;;3.00;;
3959;SDS011;1994;48.640;8.894;2022-12-24T22:42:10;5.40;;;2.80;;
3959;SDS011;1994;48.640;8.894;2022-12-24T22:44:36;4.23;;;2.97;;
3959;SDS011;1994;48.640;8.894;2022-12-24T22:47:03;3.13;;;2.17;;
3959;SDS011;1994;48.640;8.894;2022-12-24T22:49:31;2.30;;;2.10;;
3959;SDS011;1994;48.640;8.894;2022-12-24T22:52:00;2.57;;;2.03;;
3959;SDS011;1994;48.640;8.894;2022-12-24T22:54:26;1.80;;;1.70;;
3959;SDS011;1994;48.640;8.894;2022-12-24T22:56:54;1.83;;;1.73;;
3959;SDS011;1994;48.640;8.894;2022-12-24T22:59:21;2.90;;;2.50;;
3959;SDS011;1994;48.640;8.894;2022-12-24T23:01:48;2.07;;;1.97;;
3959;SDS011;1994;48.640;8.894;2022-12-24T23:07:58;4.17;;;1.67;;
3959;SDS011;1994;48.640;8.894;2022-12-24T23:10:25;1.80;;;1.70;;
3959;SDS011;1994;48.640;8.894;2022-12-24T23:12:53;1.60;;;1.50;;